sensor_id;sensor_type;location;lat;lon;timestamp;temperature;humidity
22765;DHT22;11549;50.852;3.816;2023-03-01T00:01:23;1.10;99.90
22765;DHT22;11549;50.852;3.816;2023-03-01T00:03:53;1.10;99.90
22765;DHT22;11549;50.852;3.816;2023-03-01T00:06:23;1.10;99.90
22765;DHT22;11549;50.852;3.816;2023-03-01T00:08:52;1.20;99.90
22765;DHT22;11549;50.852;3.816;2023-03-01T00:11:23;1.10;99.90
22765;DHT22;11549;50.852;3.816;2023-03-01T00:13:53;1.20;99.90
22765;DHT22;11549;50.852;3.816;2023-03-01T00:16:24;1.30;99.90
22765;DHT22;11549;50.852;3.816;2023-03-01T00:18:54;1.10;99.90
22765;DHT22;11549;50.852;3.816;2023-03-01T00:21:23;1.00;99.90
22765;DHT22;11549;50.852;3.816;2023-03-01T00:23:52;1.10;99.90
22765;DHT22;11549;50.852;3.816;2023-03-01T00:26:24;1.20;99.90
22765;DHT22;11549;50.852;3.816;2023-03-01T00:28:53;1.20;99.90
22765;DHT22;11549;50.852;3.816;2023-03-01T00:31:25;1.30;99.90
22765;DHT22;11549;50.852;3.816;2023-03-01T00:33:54;1.20;99.90
22765;DHT22;11549;50.852;3.816;2023-03-01T00:36:25;1.30;99.90
22765;DHT22;11549;50.852;3.816;2023-03-01T00:38:54;1.30;99.90
22765;DHT22;11549;50.852;3.816;2023-03-01T00:41:24;1.20;99.90
22765;DHT22;11549;50.852;3.816;2023-03-01T00:43:55;1.20;99.90
22765;DHT22;11549;50.852;3.816;2023-03-01T00:46:25;1.30;99.90
22765;DHT22;11549;50.852;3.816;2023-03-01T00:48:54;1.30;99.90
22765;DHT22;11549;50.852;3.816;2023-03-01T00:51:24;1.20;99.90
22765;DHT22;11549;50.852;3.816;2023-03-01T00:53:53;1.20;99.90
22765;DHT22;11549;50.852;3.816;2023-03-01T00:56:25;1.10;99.90
22765;DHT22;11549;50.852;3.816;2023-03-01T00:58:53;1.10;99.90
22765;DHT22;11549;50.852;3.816;2023-03-01T01:01:23;1.00;99.90
22765;DHT22;11549;50.852;3.816;2023-03-01T01:03:56;1.00;99.90
22765;DHT22;11549;50.852;3.816;2023-03-01T01:06:26;1.00;99.90
22765;DHT22;11549;50.852;3.816;2023-03-01T01:08:56;1.00;99.90
22765;DHT22;11549;50.852;3.816;2023-03-01T01:11:28;0.90;99.90
22765;DHT22;11549;50.852;3.816;2023-03-01T01:13:57;1.00;99.90
22765;DHT22;11549;50.852;3.816;2023-03-01T01:16:27;1.00;99.90
22765;DHT22;11549;50.852;3.816;2023-03-01T01:18:57;0.90;99.90
22765;DHT22;11549;50.852;3.816;2023-03-01T01:21:26;0.80;99.90
22765;DHT22;11549;50.852;3.816;2023-03-01T01:23:55;0.70;99.90
22765;DHT22;11549;50.852;3.816;2023-03-01T01:26:27;0.90;99.90
22765;DHT22;11549;50.852;3.816;2023-03-01T01:28:56;0.90;99.90
22765;DHT22;11549;50.852;3.816;2023-03-01T01:31:25;1.00;99.90
22765;DHT22;11549;50.852;3.816;2023-03-01T01:33:54;0.90;99.90
22765;DHT22;11549;50.852;3.816;2023-03-01T01:36:23;0.90;99.90
22765;DHT22;11549;50.852;3.816;2023-03-01T01:38:52;0.90;99.90
22765;DHT22;11549;50.852;3.816;2023-03-01T01:41:21;0.90;99.90
22765;DHT22;11549;50.852;3.816;2023-03-01T01:44:13;1.00;99.90
22765;DHT22;11549;50.852;3.816;2023-03-01T01:46:43;0.90;99.90
22765;DHT22;11549;50.852;3.816;2023-03-01T01:49:23;0.80;99.90
22765;DHT22;11549;50.852;3.816;2023-03-01T01:52:03;0.80;99.90
22765;DHT22;11549;50.852;3.816;2023-03-01T01:54:40;0.80;99.90
22765;DHT22;11549;50.852;3.816;2023-03-01T01:57:14;0.80;99.90
22765;DHT22;11549;50.852;3.816;2023-03-01T01:59:48;0.80;99.90
22765;DHT22;11549;50.852;3.816;2023-03-01T02:02:19;0.80;99.90
22765;DHT22;11549;50.852;3.816;2023-03-01T02:04:50;0.80;99.90
22765;DHT22;11549;50.852;3.816;2023-03-01T02:07:22;0.90;99.90
22765;DHT22;11549;50.852;3.816;2023-03-01T02:09:52;0.90;99.90
22765;DHT22;11549;50.852;3.816;2023-03-01T02:12:23;0.90;99.90
22765;DHT22;11549;50.852;3.816;2023-03-01T02:14:53;0.90;99.90
22765;DHT22;11549;50.852;3.816;2023-03-01T02:17:22;0.90;99.90
22765;DHT22;11549;50.852;3.816;2023-03-01T02:20:03;0.90;99.90
22765;DHT22;11549;50.852;3.816;2023-03-01T02:22:36;0.80;99.90
22765;DHT22;11549;50.852;3.816;2023-03-01T02:25:12;0.80;99.90
22765;DHT22;11549;50.852;3.816;2023-03-01T02:27:51;0.70;99.90
22765;DHT22;11549;50.852;3.816;2023-03-01T02:30:24;0.70;99.90
22765;DHT22;11549;50.852;3.816;2023-03-01T02:32:55;0.60;99.90
22765;DHT22;11549;50.852;3.816;2023-03-01T02:35:32;0.60;99.90
22765;DHT22;11549;50.852;3.816;2023-03-01T02:38:03;0.70;99.90
22765;DHT22;11549;50.852;3.816;2023-03-01T02:40:33;0.70;99.90
22765;DHT22;11549;50.852;3.816;2023-03-01T02:43:04;0.80;99.90
22765;DHT22;11549;50.852;3.816;2023-03-01T02:45:36;0.80;99.90
22765;DHT22;11549;50.852;3.816;2023-03-01T02:48:04;0.70;99.90
22765;DHT22;11549;50.852;3.816;2023-03-01T02:50:47;0.80;99.90
22765;DHT22;11549;50.852;3.816;2023-03-01T02:53:25;0.80;99.90
22765;DHT22;11549;50.852;3.816;2023-03-01T02:55:55;0.80;99.90
22765;DHT22;11549;50.852;3.816;2023-03-01T02:58:24;0.80;99.90
22765;DHT22;11549;50.852;3.816;2023-03-01T03:00:53;0.70;99.90
22765;DHT22;11549;50.852;3.816;2023-03-01T03:03:22;0.60;99.90
22765;DHT22;11549;50.852;3.816;2023-03-01T03:05:50;0.70;99.90
22765;DHT22;11549;50.852;3.816;2023-03-01T03:08:19;0.80;99.90
22765;DHT22;11549;50.852;3.816;2023-03-01T03:10:51;0.80;99.90
22765;DHT22;11549;50.852;3.816;2023-03-01T03:13:20;0.80;99.90
22765;DHT22;11549;50.852;3.816;2023-03-01T03:15:49;0.80;99.90
22765;DHT22;11549;50.852;3.816;2023-03-01T03:18:18;0.80;99.90
22765;DHT22;11549;50.852;3.816;2023-03-01T03:20:47;0.70;99.90
22765;DHT22;11549;50.852;3.816;2023-03-01T03:23:20;0.70;99.90
22765;DHT22;11549;50.852;3.816;2023-03-01T03:25:50;0.70;99.90
22765;DHT22;11549;50.852;3.816;2023-03-01T03:28:18;0.60;99.90
22765;DHT22;11549;50.852;3.816;2023-03-01T03:30:47;0.50;99.90
22765;DHT22;11549;50.852;3.816;2023-03-01T03:33:17;0.40;99.90
22765;DHT22;11549;50.852;3.816;2023-03-01T03:35:48;0.50;99.90
22765;DHT22;11549;50.852;3.816;2023-03-01T03:38:18;0.50;99.90
22765;DHT22;11549;50.852;3.816;2023-03-01T03:40:50;0.60;99.90
22765;DHT22;11549;50.852;3.816;2023-03-01T03:43:21;0.50;99.90
22765;DHT22;11549;50.852;3.816;2023-03-01T03:45:50;0.40;99.90
22765;DHT22;11549;50.852;3.816;2023-03-01T03:48:20;0.50;99.90
22765;DHT22;11549;50.852;3.816;2023-03-01T03:50:50;0.50;99.90
22765;DHT22;11549;50.852;3.816;2023-03-01T03:53:20;0.60;99.90
22765;DHT22;11549;50.852;3.816;2023-03-01T03:55:49;0.50;99.90
22765;DHT22;11549;50.852;3.816;2023-03-01T03:58:19;0.60;99.90
22765;DHT22;11549;50.852;3.816;2023-03-01T04:00:50;0.50;99.90
22765;DHT22;11549;50.852;3.816;2023-03-01T04:03:20;0.50;99.90
22765;DHT22;11549;50.852;3.816;2023-03-01T04:05:49;0.40;99.90
22765;DHT22;11549;50.852;3.816;2023-03-01T04:08:18;0.40;99.90
22765;DHT22;11549;50.852;3.816;2023-03-01T04:10:48;0.40;99.90
22765;DHT22;11549;50.852;3.816;2023-03-01T04:13:18;0.30;99.90
22765;DHT22;11549;50.852;3.816;2023-03-01T04:15:48;0.20;99.90
22765;DHT22;11549;50.852;3.816;2023-03-01T04:18:20;0.20;99.90
22765;DHT22;11549;50.852;3.816;2023-03-01T04:20:49;0.20;99.90
22765;DHT22;11549;50.852;3.816;2023-03-01T04:23:20;0.20;99.90
22765;DHT22;11549;50.852;3.816;2023-03-01T04:25:50;0.20;99.90
22765;DHT22;11549;50.852;3.816;2023-03-01T04:28:23;0.20;99.90
22765;DHT22;11549;50.852;3.816;2023-03-01T04:30:52;0.40;99.90
22765;DHT22;11549;50.852;3.816;2023-03-01T04:33:23;0.40;99.90
22765;DHT22;11549;50.852;3.816;2023-03-01T04:35:52;0.40;99.90
22765;DHT22;11549;50.852;3.816;2023-03-01T04:38:21;0.50;99.90
22765;DHT22;11549;50.852;3.816;2023-03-01T04:40:49;0.40;99.90
22765;DHT22;11549;50.852;3.816;2023-03-01T04:43:17;0.40;99.90
22765;DHT22;11549;50.852;3.816;2023-03-01T04:45:45;0.40;99.90
22765;DHT22;11549;50.852;3.816;2023-03-01T04:48:14;0.40;99.90
22765;DHT22;11549;50.852;3.816;2023-03-01T04:50:44;0.40;99.90
22765;DHT22;11549;50.852;3.816;2023-03-01T04:53:12;0.40;99.90
22765;DHT22;11549;50.852;3.816;2023-03-01T04:55:40;0.20;99.90
22765;DHT22;11549;50.852;3.816;2023-03-01T04:58:08;0.20;99.90
22765;DHT22;11549;50.852;3.816;2023-03-01T05:00:37;0.10;99.90
22765;DHT22;11549;50.852;3.816;2023-03-01T05:03:05;0.20;99.90
22765;DHT22;11549;50.852;3.816;2023-03-01T05:05:35;0.20;99.90
22765;DHT22;11549;50.852;3.816;2023-03-01T05:08:06;0.20;99.90
22765;DHT22;11549;50.852;3.816;2023-03-01T05:10:36;0.10;99.90
22765;DHT22;11549;50.852;3.816;2023-03-01T05:13:05;-0.10;99.90
22765;DHT22;11549;50.852;3.816;2023-03-01T05:15:34;0.00;99.90
22765;DHT22;11549;50.852;3.816;2023-03-01T05:18:03;0.00;99.90
22765;DHT22;11549;50.852;3.816;2023-03-01T05:20:38;-0.10;99.90
22765;DHT22;11549;50.852;3.816;2023-03-01T05:23:08;-0.10;99.90
22765;DHT22;11549;50.852;3.816;2023-03-01T05:25:36;-0.10;99.90
22765;DHT22;11549;50.852;3.816;2023-03-01T05:28:09;-0.20;99.90
22765;DHT22;11549;50.852;3.816;2023-03-01T05:30:39;-0.20;99.90
22765;DHT22;11549;50.852;3.816;2023-03-01T05:33:08;-0.20;99.90
22765;DHT22;11549;50.852;3.816;2023-03-01T05:35:41;-0.20;99.90
22765;DHT22;11549;50.852;3.816;2023-03-01T05:38:12;-0.30;99.90
22765;DHT22;11549;50.852;3.816;2023-03-01T05:40:41;-0.30;99.90
22765;DHT22;11549;50.852;3.816;2023-03-01T05:43:10;-0.30;99.90
22765;DHT22;11549;50.852;3.816;2023-03-01T05:45:40;-0.10;99.90
22765;DHT22;11549;50.852;3.816;2023-03-01T05:48:09;-0.10;99.90
22765;DHT22;11549;50.852;3.816;2023-03-01T05:50:40;0.00;99.90
22765;DHT22;11549;50.852;3.816;2023-03-01T05:53:12;0.00;99.90
22765;DHT22;11549;50.852;3.816;2023-03-01T05:55:42;0.00;99.90
22765;DHT22;11549;50.852;3.816;2023-03-01T05:58:14;0.00;99.90
22765;DHT22;11549;50.852;3.816;2023-03-01T06:00:44;-0.10;99.90
22765;DHT22;11549;50.852;3.816;2023-03-01T06:03:14;-0.20;99.90
22765;DHT22;11549;50.852;3.816;2023-03-01T06:05:42;-0.20;99.90
22765;DHT22;11549;50.852;3.816;2023-03-01T06:08:13;-0.20;99.90
22765;DHT22;11549;50.852;3.816;2023-03-01T06:10:41;-0.30;99.90
22765;DHT22;11549;50.852;3.816;2023-03-01T06:13:10;-0.20;99.90
22765;DHT22;11549;50.852;3.816;2023-03-01T06:15:38;-0.20;99.90
22765;DHT22;11549;50.852;3.816;2023-03-01T06:18:06;-0.10;99.90
22765;DHT22;11549;50.852;3.816;2023-03-01T06:20:35;-0.10;99.90
22765;DHT22;11549;50.852;3.816;2023-03-01T06:23:03;-0.30;99.90
22765;DHT22;11549;50.852;3.816;2023-03-01T06:25:33;-0.30;99.90
22765;DHT22;11549;50.852;3.816;2023-03-01T06:28:01;-0.20;99.90
22765;DHT22;11549;50.852;3.816;2023-03-01T06:30:31;-0.10;99.90
22765;DHT22;11549;50.852;3.816;2023-03-01T06:32:59;-0.10;99.90
22765;DHT22;11549;50.852;3.816;2023-03-01T06:35:30;-0.20;99.90
22765;DHT22;11549;50.852;3.816;2023-03-01T06:38:03;-0.20;99.90
22765;DHT22;11549;50.852;3.816;2023-03-01T06:40:33;-0.20;99.90
22765;DHT22;11549;50.852;3.816;2023-03-01T06:43:02;-0.20;99.90
22765;DHT22;11549;50.852;3.816;2023-03-01T06:45:30;-0.20;99.90
22765;DHT22;11549;50.852;3.816;2023-03-01T06:48:03;-0.20;99.90
22765;DHT22;11549;50.852;3.816;2023-03-01T06:50:32;-0.20;99.90
22765;DHT22;11549;50.852;3.816;2023-03-01T06:53:02;-0.20;99.90
22765;DHT22;11549;50.852;3.816;2023-03-01T06:55:30;0.00;99.90
22765;DHT22;11549;50.852;3.816;2023-03-01T06:58:01;0.00;99.90
22765;DHT22;11549;50.852;3.816;2023-03-01T07:00:30;0.20;99.90
22765;DHT22;11549;50.852;3.816;2023-03-01T07:03:00;0.40;99.90
22765;DHT22;11549;50.852;3.816;2023-03-01T07:05:29;0.60;99.90
22765;DHT22;11549;50.852;3.816;2023-03-01T07:07:58;0.80;99.90
22765;DHT22;11549;50.852;3.816;2023-03-01T07:10:26;1.10;99.90
22765;DHT22;11549;50.852;3.816;2023-03-01T07:12:55;1.30;99.90
22765;DHT22;11549;50.852;3.816;2023-03-01T07:15:26;1.70;99.90
22765;DHT22;11549;50.852;3.816;2023-03-01T07:17:56;1.80;99.90
22765;DHT22;11549;50.852;3.816;2023-03-01T07:20:24;1.90;99.90
22765;DHT22;11549;50.852;3.816;2023-03-01T07:22:52;2.10;99.90
22765;DHT22;11549;50.852;3.816;2023-03-01T07:25:21;2.30;99.90
22765;DHT22;11549;50.852;3.816;2023-03-01T07:27:50;2.50;99.90
22765;DHT22;11549;50.852;3.816;2023-03-01T07:30:19;2.50;99.90
22765;DHT22;11549;50.852;3.816;2023-03-01T07:32:49;2.70;99.90
22765;DHT22;11549;50.852;3.816;2023-03-01T07:35:21;2.90;99.90
22765;DHT22;11549;50.852;3.816;2023-03-01T07:37:50;3.00;99.90
22765;DHT22;11549;50.852;3.816;2023-03-01T07:40:19;3.30;99.90
22765;DHT22;11549;50.852;3.816;2023-03-01T07:42:47;3.40;99.90
22765;DHT22;11549;50.852;3.816;2023-03-01T07:45:15;3.60;99.90
22765;DHT22;11549;50.852;3.816;2023-03-01T07:47:44;3.90;99.90
22765;DHT22;11549;50.852;3.816;2023-03-01T07:50:13;4.40;99.90
22765;DHT22;11549;50.852;3.816;2023-03-01T07:52:44;4.80;99.90
22765;DHT22;11549;50.852;3.816;2023-03-01T07:55:13;4.90;99.90
22765;DHT22;11549;50.852;3.816;2023-03-01T07:57:41;5.30;99.90
22765;DHT22;11549;50.852;3.816;2023-03-01T08:00:11;5.40;99.90
22765;DHT22;11549;50.852;3.816;2023-03-01T08:02:40;5.50;99.90
22765;DHT22;11549;50.852;3.816;2023-03-01T08:05:09;5.80;99.90
22765;DHT22;11549;50.852;3.816;2023-03-01T08:07:39;5.80;99.90
22765;DHT22;11549;50.852;3.816;2023-03-01T08:10:09;5.60;99.90
22765;DHT22;11549;50.852;3.816;2023-03-01T08:12:37;5.40;99.90
22765;DHT22;11549;50.852;3.816;2023-03-01T08:15:06;5.60;99.90
22765;DHT22;11549;50.852;3.816;2023-03-01T08:17:35;5.80;99.90
22765;DHT22;11549;50.852;3.816;2023-03-01T08:20:04;5.40;99.90
22765;DHT22;11549;50.852;3.816;2023-03-01T08:22:34;5.20;99.90
22765;DHT22;11549;50.852;3.816;2023-03-01T08:25:04;5.20;99.90
22765;DHT22;11549;50.852;3.816;2023-03-01T08:27:32;5.00;99.90
22765;DHT22;11549;50.852;3.816;2023-03-01T08:30:00;5.10;99.90
22765;DHT22;11549;50.852;3.816;2023-03-01T08:32:28;5.00;99.90
22765;DHT22;11549;50.852;3.816;2023-03-01T08:34:57;4.90;99.90
22765;DHT22;11549;50.852;3.816;2023-03-01T08:37:25;4.90;99.90
22765;DHT22;11549;50.852;3.816;2023-03-01T08:39:54;5.00;99.90
22765;DHT22;11549;50.852;3.816;2023-03-01T08:42:24;4.90;99.90
22765;DHT22;11549;50.852;3.816;2023-03-01T08:44:52;4.80;99.90
22765;DHT22;11549;50.852;3.816;2023-03-01T08:47:21;5.00;99.90
22765;DHT22;11549;50.852;3.816;2023-03-01T08:49:50;5.20;99.90
22765;DHT22;11549;50.852;3.816;2023-03-01T08:52:19;5.20;99.90
22765;DHT22;11549;50.852;3.816;2023-03-01T08:54:48;5.00;99.90
22765;DHT22;11549;50.852;3.816;2023-03-01T08:57:16;4.90;99.90
22765;DHT22;11549;50.852;3.816;2023-03-01T08:59:46;5.20;99.90
22765;DHT22;11549;50.852;3.816;2023-03-01T09:02:16;5.30;99.90
22765;DHT22;11549;50.852;3.816;2023-03-01T09:04:44;5.20;99.90
22765;DHT22;11549;50.852;3.816;2023-03-01T09:07:13;5.40;99.90
22765;DHT22;11549;50.852;3.816;2023-03-01T09:09:41;5.50;99.90
22765;DHT22;11549;50.852;3.816;2023-03-01T09:12:09;5.60;99.90
22765;DHT22;11549;50.852;3.816;2023-03-01T09:14:38;5.40;99.90
22765;DHT22;11549;50.852;3.816;2023-03-01T09:17:09;5.40;99.90
22765;DHT22;11549;50.852;3.816;2023-03-01T09:19:37;5.60;99.90
22765;DHT22;11549;50.852;3.816;2023-03-01T09:22:05;5.90;99.90
22765;DHT22;11549;50.852;3.816;2023-03-01T09:24:34;5.80;99.90
22765;DHT22;11549;50.852;3.816;2023-03-01T09:27:02;5.80;99.90
22765;DHT22;11549;50.852;3.816;2023-03-01T09:29:35;5.40;99.90
22765;DHT22;11549;50.852;3.816;2023-03-01T09:32:04;5.40;99.90
22765;DHT22;11549;50.852;3.816;2023-03-01T09:34:33;5.30;99.90
22765;DHT22;11549;50.852;3.816;2023-03-01T09:37:23;5.50;99.90
22765;DHT22;11549;50.852;3.816;2023-03-01T09:39:51;5.70;99.90
22765;DHT22;11549;50.852;3.816;2023-03-01T09:42:20;5.70;99.90
22765;DHT22;11549;50.852;3.816;2023-03-01T09:44:52;5.60;99.90
22765;DHT22;11549;50.852;3.816;2023-03-01T09:47:26;5.40;99.90
22765;DHT22;11549;50.852;3.816;2023-03-01T09:50:03;5.30;99.90
22765;DHT22;11549;50.852;3.816;2023-03-01T09:52:39;5.40;99.90
22765;DHT22;11549;50.852;3.816;2023-03-01T09:55:11;5.40;99.90
22765;DHT22;11549;50.852;3.816;2023-03-01T09:57:45;5.50;99.90
22765;DHT22;11549;50.852;3.816;2023-03-01T10:00:22;5.60;99.90
22765;DHT22;11549;50.852;3.816;2023-03-01T10:02:57;5.70;99.90
22765;DHT22;11549;50.852;3.816;2023-03-01T10:05:43;5.60;99.90
22765;DHT22;11549;50.852;3.816;2023-03-01T10:08:26;5.60;99.90
22765;DHT22;11549;50.852;3.816;2023-03-01T10:10:57;5.60;99.90
22765;DHT22;11549;50.852;3.816;2023-03-01T10:13:33;5.60;99.90
22765;DHT22;11549;50.852;3.816;2023-03-01T10:16:10;5.80;99.90
22765;DHT22;11549;50.852;3.816;2023-03-01T10:18:40;6.00;99.90
22765;DHT22;11549;50.852;3.816;2023-03-01T10:21:14;6.00;99.90
22765;DHT22;11549;50.852;3.816;2023-03-01T10:23:44;6.30;99.90
22765;DHT22;11549;50.852;3.816;2023-03-01T10:26:36;6.30;99.90
22765;DHT22;11549;50.852;3.816;2023-03-01T10:29:07;5.90;99.90
22765;DHT22;11549;50.852;3.816;2023-03-01T10:31:40;5.80;99.90
22765;DHT22;11549;50.852;3.816;2023-03-01T10:34:14;5.70;99.90
22765;DHT22;11549;50.852;3.816;2023-03-01T10:36:48;5.80;99.90
22765;DHT22;11549;50.852;3.816;2023-03-01T10:39:19;5.80;99.90
22765;DHT22;11549;50.852;3.816;2023-03-01T10:41:55;5.70;99.90
22765;DHT22;11549;50.852;3.816;2023-03-01T10:44:41;5.90;99.90
22765;DHT22;11549;50.852;3.816;2023-03-01T10:47:16;6.20;99.90
22765;DHT22;11549;50.852;3.816;2023-03-01T10:49:59;6.30;99.90
22765;DHT22;11549;50.852;3.816;2023-03-01T10:52:32;6.40;99.90
22765;DHT22;11549;50.852;3.816;2023-03-01T10:55:03;6.30;99.90
22765;DHT22;11549;50.852;3.816;2023-03-01T10:57:36;6.30;99.90
22765;DHT22;11549;50.852;3.816;2023-03-01T11:00:20;6.50;99.90
22765;DHT22;11549;50.852;3.816;2023-03-01T11:02:51;6.70;99.90
22765;DHT22;11549;50.852;3.816;2023-03-01T11:05:29;6.80;99.90
22765;DHT22;11549;50.852;3.816;2023-03-01T11:08:03;6.90;99.90
22765;DHT22;11549;50.852;3.816;2023-03-01T11:10:33;6.50;99.90
22765;DHT22;11549;50.852;3.816;2023-03-01T11:13:14;5.90;99.90
22765;DHT22;11549;50.852;3.816;2023-03-01T11:15:43;5.80;99.90
22765;DHT22;11549;50.852;3.816;2023-03-01T11:18:26;5.90;99.90
22765;DHT22;11549;50.852;3.816;2023-03-01T11:21:13;6.00;99.90
22765;DHT22;11549;50.852;3.816;2023-03-01T11:23:45;6.00;99.90
22765;DHT22;11549;50.852;3.816;2023-03-01T11:26:15;6.20;99.90
22765;DHT22;11549;50.852;3.816;2023-03-01T11:28:51;6.60;99.90
22765;DHT22;11549;50.852;3.816;2023-03-01T11:31:23;6.90;99.90
22765;DHT22;11549;50.852;3.816;2023-03-01T11:33:56;7.00;99.90
22765;DHT22;11549;50.852;3.816;2023-03-01T11:36:30;7.10;99.90
22765;DHT22;11549;50.852;3.816;2023-03-01T11:39:05;6.90;99.90
22765;DHT22;11549;50.852;3.816;2023-03-01T11:41:41;6.70;99.90
22765;DHT22;11549;50.852;3.816;2023-03-01T11:44:14;6.80;99.90
22765;DHT22;11549;50.852;3.816;2023-03-01T11:47:03;6.70;99.90
22765;DHT22;11549;50.852;3.816;2023-03-01T11:49:57;6.80;99.90
22765;DHT22;11549;50.852;3.816;2023-03-01T11:52:36;7.00;99.90
22765;DHT22;11549;50.852;3.816;2023-03-01T11:55:23;7.20;99.90
22765;DHT22;11549;50.852;3.816;2023-03-01T11:58:07;7.10;99.90
22765;DHT22;11549;50.852;3.816;2023-03-01T12:00:53;7.10;99.90
22765;DHT22;11549;50.852;3.816;2023-03-01T12:03:29;7.10;99.90
22765;DHT22;11549;50.852;3.816;2023-03-01T12:09:30;7.20;99.90
22765;DHT22;11549;50.852;3.816;2023-03-01T12:15:17;7.70;99.90
22765;DHT22;11549;50.852;3.816;2023-03-01T12:18:02;7.40;99.90
22765;DHT22;11549;50.852;3.816;2023-03-01T12:20:36;7.60;99.90
22765;DHT22;11549;50.852;3.816;2023-03-01T12:23:39;7.60;99.60
22765;DHT22;11549;50.852;3.816;2023-03-01T12:26:19;7.80;99.90
22765;DHT22;11549;50.852;3.816;2023-03-01T12:29:08;7.80;99.90
22765;DHT22;11549;50.852;3.816;2023-03-01T12:32:28;8.00;99.50
22765;DHT22;11549;50.852;3.816;2023-03-01T12:35:06;7.60;99.80
22765;DHT22;11549;50.852;3.816;2023-03-01T12:37:50;7.50;99.90
22765;DHT22;11549;50.852;3.816;2023-03-01T12:40:46;7.40;99.80
22765;DHT22;11549;50.852;3.816;2023-03-01T12:43:27;7.40;99.80
22765;DHT22;11549;50.852;3.816;2023-03-01T12:46:26;7.50;99.90
22765;DHT22;11549;50.852;3.816;2023-03-01T12:49:04;7.40;99.90
22765;DHT22;11549;50.852;3.816;2023-03-01T12:51:36;7.50;99.90
22765;DHT22;11549;50.852;3.816;2023-03-01T12:54:14;7.50;99.90
22765;DHT22;11549;50.852;3.816;2023-03-01T12:56:43;7.90;99.90
22765;DHT22;11549;50.852;3.816;2023-03-01T12:59:24;8.00;98.30
22765;DHT22;11549;50.852;3.816;2023-03-01T13:02:03;8.10;99.90
22765;DHT22;11549;50.852;3.816;2023-03-01T13:04:45;7.90;99.80
22765;DHT22;11549;50.852;3.816;2023-03-01T13:07:29;7.80;99.40
22765;DHT22;11549;50.852;3.816;2023-03-01T13:10:11;7.80;98.10
22765;DHT22;11549;50.852;3.816;2023-03-01T13:13:03;8.00;98.70
22765;DHT22;11549;50.852;3.816;2023-03-01T13:15:38;8.50;98.90
22765;DHT22;11549;50.852;3.816;2023-03-01T13:18:30;8.90;98.40
22765;DHT22;11549;50.852;3.816;2023-03-01T13:21:01;8.80;97.90
22765;DHT22;11549;50.852;3.816;2023-03-01T13:23:33;8.90;97.80
22765;DHT22;11549;50.852;3.816;2023-03-01T13:26:07;9.30;97.90
22765;DHT22;11549;50.852;3.816;2023-03-01T13:28:56;9.50;96.80
22765;DHT22;11549;50.852;3.816;2023-03-01T13:31:56;9.50;94.80
22765;DHT22;11549;50.852;3.816;2023-03-01T13:34:54;9.10;95.40
22765;DHT22;11549;50.852;3.816;2023-03-01T13:37:41;8.90;95.90
22765;DHT22;11549;50.852;3.816;2023-03-01T13:43:28;8.40;97.90
22765;DHT22;11549;50.852;3.816;2023-03-01T13:45:58;8.40;97.60
22765;DHT22;11549;50.852;3.816;2023-03-01T13:48:29;8.20;98.40
22765;DHT22;11549;50.852;3.816;2023-03-01T13:51:03;8.60;98.90
22765;DHT22;11549;50.852;3.816;2023-03-01T13:53:33;8.60;96.50
22765;DHT22;11549;50.852;3.816;2023-03-01T13:56:08;8.70;96.30
22765;DHT22;11549;50.852;3.816;2023-03-01T13:58:51;8.70;95.70
22765;DHT22;11549;50.852;3.816;2023-03-01T14:01:22;8.70;96.30
22765;DHT22;11549;50.852;3.816;2023-03-01T14:03:50;8.50;94.40
22765;DHT22;11549;50.852;3.816;2023-03-01T14:06:22;8.30;95.90
22765;DHT22;11549;50.852;3.816;2023-03-01T14:09:03;8.40;97.90
22765;DHT22;11549;50.852;3.816;2023-03-01T14:11:59;8.40;96.90
22765;DHT22;11549;50.852;3.816;2023-03-01T14:14:42;8.30;96.70
22765;DHT22;11549;50.852;3.816;2023-03-01T14:17:35;8.20;96.90
22765;DHT22;11549;50.852;3.816;2023-03-01T14:20:09;8.30;97.10
22765;DHT22;11549;50.852;3.816;2023-03-01T14:22:42;8.20;97.80
22765;DHT22;11549;50.852;3.816;2023-03-01T14:25:21;8.00;97.30
22765;DHT22;11549;50.852;3.816;2023-03-01T14:27:58;8.00;96.30
22765;DHT22;11549;50.852;3.816;2023-03-01T14:30:33;8.10;97.80
22765;DHT22;11549;50.852;3.816;2023-03-01T14:33:04;8.20;97.10
22765;DHT22;11549;50.852;3.816;2023-03-01T14:35:35;8.30;97.00
22765;DHT22;11549;50.852;3.816;2023-03-01T14:38:05;8.10;96.70
22765;DHT22;11549;50.852;3.816;2023-03-01T14:40:35;8.10;96.70
22765;DHT22;11549;50.852;3.816;2023-03-01T14:43:11;8.20;95.40
22765;DHT22;11549;50.852;3.816;2023-03-01T14:45:47;8.10;95.50
22765;DHT22;11549;50.852;3.816;2023-03-01T14:48:17;8.20;96.70
22765;DHT22;11549;50.852;3.816;2023-03-01T14:50:47;8.10;95.90
22765;DHT22;11549;50.852;3.816;2023-03-01T14:53:18;8.20;97.60
22765;DHT22;11549;50.852;3.816;2023-03-01T14:55:51;8.00;96.40
22765;DHT22;11549;50.852;3.816;2023-03-01T14:58:21;7.90;97.40
22765;DHT22;11549;50.852;3.816;2023-03-01T15:00:52;7.90;96.70
22765;DHT22;11549;50.852;3.816;2023-03-01T15:03:26;7.90;95.90
22765;DHT22;11549;50.852;3.816;2023-03-01T15:05:55;7.90;96.40
22765;DHT22;11549;50.852;3.816;2023-03-01T15:08:27;7.70;96.90
22765;DHT22;11549;50.852;3.816;2023-03-01T15:11:02;7.60;97.20
22765;DHT22;11549;50.852;3.816;2023-03-01T15:13:34;7.50;97.50
22765;DHT22;11549;50.852;3.816;2023-03-01T15:16:06;7.30;98.30
22765;DHT22;11549;50.852;3.816;2023-03-01T15:18:36;7.20;98.10
22765;DHT22;11549;50.852;3.816;2023-03-01T15:21:07;7.30;99.70
22765;DHT22;11549;50.852;3.816;2023-03-01T15:23:38;7.40;98.30
22765;DHT22;11549;50.852;3.816;2023-03-01T15:26:22;7.40;97.80
22765;DHT22;11549;50.852;3.816;2023-03-01T15:28:52;7.30;97.60
22765;DHT22;11549;50.852;3.816;2023-03-01T15:31:26;7.40;98.10
22765;DHT22;11549;50.852;3.816;2023-03-01T15:34:09;7.40;98.50
22765;DHT22;11549;50.852;3.816;2023-03-01T15:36:41;7.30;97.80
22765;DHT22;11549;50.852;3.816;2023-03-01T15:39:35;7.20;98.40
22765;DHT22;11549;50.852;3.816;2023-03-01T15:42:07;7.40;98.90
22765;DHT22;11549;50.852;3.816;2023-03-01T15:44:39;7.50;98.70
22765;DHT22;11549;50.852;3.816;2023-03-01T15:47:26;7.40;99.50
22765;DHT22;11549;50.852;3.816;2023-03-01T15:49:57;7.20;99.90
22765;DHT22;11549;50.852;3.816;2023-03-01T15:52:28;7.20;99.60
22765;DHT22;11549;50.852;3.816;2023-03-01T15:55:01;7.20;99.90
22765;DHT22;11549;50.852;3.816;2023-03-01T15:57:29;7.10;99.40
22765;DHT22;11549;50.852;3.816;2023-03-01T15:59:58;7.00;99.90
22765;DHT22;11549;50.852;3.816;2023-03-01T16:02:26;7.00;99.90
22765;DHT22;11549;50.852;3.816;2023-03-01T16:04:55;7.00;99.90
22765;DHT22;11549;50.852;3.816;2023-03-01T16:07:24;7.10;99.90
22765;DHT22;11549;50.852;3.816;2023-03-01T16:09:54;6.90;99.90
22765;DHT22;11549;50.852;3.816;2023-03-01T16:12:24;6.90;99.90
22765;DHT22;11549;50.852;3.816;2023-03-01T16:14:53;6.80;99.90
22765;DHT22;11549;50.852;3.816;2023-03-01T16:17:21;6.70;99.90
22765;DHT22;11549;50.852;3.816;2023-03-01T16:19:50;6.70;99.90
22765;DHT22;11549;50.852;3.816;2023-03-01T16:22:18;6.60;99.90
22765;DHT22;11549;50.852;3.816;2023-03-01T16:24:52;6.60;99.90
22765;DHT22;11549;50.852;3.816;2023-03-01T16:27:21;6.50;99.90
22765;DHT22;11549;50.852;3.816;2023-03-01T16:29:51;6.60;99.90